Time;durP1;ratioP1;P1;durP2;ratioP2;P2;SDS_P1;SDS_P2;PMS_P1;PMS_P2;Temp;Humidity;BMP_temperature;BMP_pressure;BME280_temperature;BME280_humidity;BME280_pressure;Samples;Min_cycle;Max_cycle;Signal;HPM_P1;HPM_P2
2023/01/09 00:02:20;;;;;;;0.95;0.73;;;;;;;5.70;100.00;99363.53;5339340;27;20063;-83
2023/01/09 00:04:51;;;;;;;2.50;0.88;;;;;;;5.64;100.00;99351.72;5337943;27;20110;-83
2023/01/09 00:07:22;;;;;;;1.05;0.80;;;;;;;5.63;100.00;99357.19;5315109;27;20031;-83
2023/01/09 00:09:54;;;;;;;0.90;0.75;;;;;;;5.57;100.00;99365.69;5343992;27;20067;-83
2023/01/09 00:12:25;;;;;;;4.32;1.05;;;;;;;5.54;100.00;99368.63;5338335;27;20069;-83
2023/01/09 00:14:56;;;;;;;1.42;0.90;;;;;;;5.48;100.00;99380.63;5337020;27;20435;-82
2023/01/09 00:17:28;;;;;;;3.47;1.08;;;;;;;5.44;100.00;99373.97;5345908;27;20023;-82
2023/01/09 00:19:59;;;;;;;3.03;1.00;;;;;;;5.43;100.00;99381.03;5335167;27;20123;-82
2023/01/09 00:22:31;;;;;;;3.80;0.98;;;;;;;5.38;100.00;99387.75;5344173;27;20091;-83
2023/01/09 00:25:03;;;;;;;1.63;0.80;;;;;;;5.34;100.00;99386.38;5345906;27;20039;-82
2023/01/09 00:27:35;;;;;;;2.13;0.90;;;;;;;5.27;100.00;99384.31;5345534;27;20031;-82
2023/01/09 00:30:08;;;;;;;3.83;1.00;;;;;;;5.19;100.00;99378.06;5329061;27;20381;-82
2023/01/09 00:32:39;;;;;;;2.75;1.00;;;;;;;5.18;100.00;99389.63;5336404;27;20582;-82
2023/01/09 00:35:15;;;;;;;1.98;1.05;;;;;;;5.15;100.00;99385.44;5346319;27;20099;-82
2023/01/09 00:37:46;;;;;;;1.83;0.90;;;;;;;5.12;100.00;99385.75;5317460;28;20028;-82
2023/01/09 00:40:18;;;;;;;1.98;1.00;;;;;;;5.08;100.00;99390.50;5342937;27;20034;-82
2023/01/09 00:42:55;;;;;;;2.33;1.20;;;;;;;5.08;100.00;99384.34;5348816;27;20426;-82
2023/01/09 00:45:28;;;;;;;2.17;1.10;;;;;;;5.08;100.00;99387.00;5348561;27;20413;-81
2023/01/09 00:48:07;;;;;;;3.97;1.10;;;;;;;5.05;100.00;99388.13;5344324;27;20040;-81
2023/01/09 00:50:39;;;;;;;2.80;0.88;;;;;;;4.91;100.00;99386.75;5352221;27;20038;-81
2023/01/09 00:53:17;;;;;;;1.30;0.95;;;;;;;5.08;100.00;99397.56;5352457;27;20035;-82
2023/01/09 00:55:50;;;;;;;3.47;1.30;;;;;;;5.00;100.00;99393.00;5333650;27;20034;-82
2023/01/09 00:58:21;;;;;;;2.60;1.27;;;;;;;5.02;100.00;99383.13;5337504;27;20020;-82
2023/01/09 01:00:53;;;;;;;3.70;1.17;;;;;;;5.02;100.00;99383.13;5329658;27;20035;-82
2023/01/09 01:03:25;;;;;;;4.03;1.70;;;;;;;5.10;100.00;99392.97;5346167;27;20434;-82
2023/01/09 01:08:45;;;;;;;3.22;1.20;;;;;;;4.98;100.00;99391.47;5345477;27;20067;-82
2023/01/09 01:11:17;;;;;;;4.28;1.27;;;;;;;4.99;100.00;99386.03;5344711;27;20081;-82
2023/01/09 01:13:49;;;;;;;3.47;1.15;;;;;;;4.96;100.00;99393.44;5328030;27;20019;-81
2023/01/09 01:16:20;;;;;;;3.25;1.33;;;;;;;4.89;100.00;99395.78;5343209;27;20027;-82
2023/01/09 01:18:51;;;;;;;5.82;1.65;;;;;;;4.87;100.00;99393.31;5336752;27;20047;-82
2023/01/09 01:21:22;;;;;;;5.07;1.30;;;;;;;4.83;100.00;99391.91;5332035;27;20070;-82
2023/01/09 01:23:54;;;;;;;4.65;1.52;;;;;;;4.84;100.00;99395.38;5330063;27;20024;-82
2023/01/09 01:26:25;;;;;;;5.45;1.50;;;;;;;4.80;100.00;99397.47;5340109;27;20092;-82
2023/01/09 01:28:58;;;;;;;3.97;1.45;;;;;;;4.82;100.00;99405.25;5341802;27;20038;-82
2023/01/09 01:31:29;;;;;;;6.40;1.60;;;;;;;4.78;100.00;99403.88;5344704;27;20028;-83
2023/01/09 01:34:00;;;;;;;3.72;1.45;;;;;;;4.80;100.00;99410.69;5337321;27;20085;-83
2023/01/09 01:36:33;;;;;;;5.88;1.80;;;;;;;4.86;100.00;99409.31;5336172;27;20019;-83
2023/01/09 01:39:04;;;;;;;5.70;1.80;;;;;;;4.77;100.00;99410.13;5322297;27;20368;-83
2023/01/09 01:41:37;;;;;;;3.47;1.60;;;;;;;4.66;100.00;99411.13;5337509;27;20031;-83
2023/01/09 01:44:45;;;;;;;4.05;1.80;;;;;;;4.71;100.00;99415.00;5344597;27;20018;-83
2023/01/09 01:47:18;;;;;;;3.72;2.00;;;;;;;4.65;100.00;99428.78;5340666;27;20026;-83
2023/01/09 01:49:51;;;;;;;5.28;1.90;;;;;;;4.63;100.00;99428.09;5319480;28;20035;-83
2023/01/09 01:52:23;;;;;;;4.88;2.10;;;;;;;4.58;100.00;99424.19;5333124;27;20115;-83
2023/01/09 01:54:55;;;;;;;5.50;2.22;;;;;;;4.53;100.00;99430.72;5310739;27;20317;-83
2023/01/09 01:57:26;;;;;;;2.58;1.75;;;;;;;4.50;100.00;99425.69;5344067;27;20031;-83
2023/01/09 02:00:01;;;;;;;6.50;2.03;;;;;;;4.47;100.00;99419.84;5334574;27;20020;-83
2023/01/09 02:02:33;;;;;;;6.40;2.15;;;;;;;4.44;100.00;99422.78;5325823;27;20027;-83
2023/01/09 02:05:05;;;;;;;6.25;2.25;;;;;;;4.42;100.00;99420.28;5329471;27;20019;-83
2023/01/09 02:07:36;;;;;;;3.90;1.88;;;;;;;4.41;100.00;99436.25;5343714;27;20110;-83
2023/01/09 02:10:08;;;;;;;5.63;2.15;;;;;;;4.35;100.00;99435.84;5305472;28;20021;-83
2023/01/09 02:12:40;;;;;;;6.10;2.13;;;;;;;4.40;100.00;99434.59;5326697;27;20035;-83
2023/01/09 02:15:14;;;;;;;8.07;3.10;;;;;;;4.38;100.00;99428.63;5346568;27;20019;-83
2023/01/09 02:17:57;;;;;;;6.78;2.20;;;;;;;4.34;100.00;99426.25;5344771;27;20092;-83
2023/01/09 02:20:39;;;;;;;6.25;2.17;;;;;;;4.38;100.00;99424.16;5334828;27;20143;-83
2023/01/09 02:23:48;;;;;;;5.97;2.28;;;;;;;4.36;100.00;99426.09;5339552;27;20107;-83
2023/01/09 02:26:28;;;;;;;5.90;2.10;;;;;;;4.39;100.00;99419.72;5344388;27;20035;-82
2023/01/09 02:29:15;;;;;;;8.70;2.72;;;;;;;4.31;100.00;99421.25;5334584;27;20146;-83
2023/01/09 02:32:03;;;;;;;3.83;2.03;;;;;;;4.26;100.00;99422.63;5328659;27;20035;-83
2023/01/09 02:34:34;;;;;;;6.10;2.72;;;;;;;4.23;100.00;99421.09;5334236;27;20073;-83
2023/01/09 02:37:27;;;;;;;5.50;2.05;;;;;;;4.25;100.00;99416.50;5344702;27;20020;-83
2023/01/09 02:40:17;;;;;;;5.80;2.47;;;;;;;4.21;100.00;99425.69;5326538;27;20031;-83
2023/01/09 02:42:49;;;;;;;3.88;2.03;;;;;;;4.13;100.00;99409.69;5343194;27;20380;-83
2023/01/09 02:45:21;;;;;;;7.28;3.08;;;;;;;4.13;100.00;99420.25;5329974;27;20051;-83
2023/01/09 02:47:52;;;;;;;5.70;2.05;;;;;;;4.12;100.00;99421.19;5329256;27;20020;-83
2023/01/09 02:50:31;;;;;;;4.63;2.53;;;;;;;4.09;100.00;99427.59;5347447;27;20020;-83
2023/01/09 02:53:30;;;;;;;4.60;2.25;;;;;;;4.02;100.00;99418.56;5355874;27;20035;-82
2023/01/09 02:56:22;;;;;;;7.00;2.60;;;;;;;3.96;100.00;99411.16;5340358;27;20102;-82
2023/01/09 02:59:18;;;;;;;4.25;2.38;;;;;;;4.00;100.00;99396.75;5352375;27;20322;-82
2023/01/09 03:02:20;;;;;;;7.38;2.75;;;;;;;4.00;100.00;99398.53;5334517;27;20044;-83
2023/01/09 03:05:16;;;;;;;6.80;3.25;;;;;;;4.02;100.00;99401.91;5342688;27;20032;-83
2023/01/09 03:08:05;;;;;;;8.73;3.40;;;;;;;4.05;100.00;99396.31;5344340;27;20031;-83
2023/01/09 03:10:45;;;;;;;9.82;3.15;;;;;;;4.01;100.00;99390.47;5348807;27;20097;-83
2023/01/09 03:13:20;;;;;;;10.73;2.80;;;;;;;3.98;100.00;99391.59;5351913;27;20035;-82
2023/01/09 03:15:54;;;;;;;9.40;3.08;;;;;;;4.02;100.00;99401.91;5355583;27;20423;-82
2023/01/09 03:18:30;;;;;;;9.55;3.15;;;;;;;4.01;100.00;99402.84;5355200;27;20043;-81
2023/01/09 03:21:05;;;;;;;13.90;3.10;;;;;;;4.01;100.00;99406.31;5355658;27;20051;-82
2023/01/09 03:23:49;;;;;;;11.35;3.08;;;;;;;4.06;100.00;99412.03;5350935;27;20406;-82
2023/01/09 03:26:22;;;;;;;9.07;3.60;;;;;;;4.01;100.00;99410.75;5349772;27;20071;-81
2023/01/09 03:28:54;;;;;;;10.35;3.58;;;;;;;4.01;100.00;99416.03;5352217;27;20093;-81
2023/01/09 03:31:26;;;;;;;9.35;3.13;;;;;;;4.08;100.00;99425.09;5348388;27;20016;-82
2023/01/09 03:33:57;;;;;;;10.63;3.47;;;;;;;4.05;100.00;99418.28;5330425;27;20020;-81
2023/01/09 03:36:28;;;;;;;11.45;3.42;;;;;;;4.02;100.00;99417.72;5348080;27;20074;-81
2023/01/09 03:39:00;;;;;;;13.32;3.92;;;;;;;4.03;100.00;99407.00;5338883;27;20020;-81
2023/01/09 03:41:31;;;;;;;10.88;3.45;;;;;;;4.05;100.00;99406.88;5352964;27;20089;-80
2023/01/09 03:44:02;;;;;;;11.93;4.13;;;;;;;4.07;100.00;99408.44;5354689;27;20099;-81
2023/01/09 03:46:33;;;;;;;8.80;3.42;;;;;;;4.04;100.00;99405.22;5336460;27;20025;-80
2023/01/09 03:49:05;;;;;;;8.70;3.35;;;;;;;4.08;100.00;99412.72;5337639;27;20112;-81
2023/01/09 03:51:36;;;;;;;9.15;3.97;;;;;;;4.20;100.00;99412.63;5349796;27;20370;-82
2023/01/09 03:54:07;;;;;;;6.63;2.88;;;;;;;4.18;100.00;99406.66;5354815;27;20019;-80
2023/01/09 03:56:39;;;;;;;12.77;3.30;;;;;;;4.22;100.00;99415.94;5353173;27;20032;-80
2023/01/09 03:59:10;;;;;;;6.80;2.67;;;;;;;4.21;100.00;99417.75;5353896;27;20719;-81
2023/01/09 04:01:41;;;;;;;11.15;3.08;;;;;;;4.22;100.00;99413.31;5351698;27;20028;-81
2023/01/09 04:04:12;;;;;;;6.05;2.88;;;;;;;4.24;100.00;99417.47;5350232;27;20131;-81
2023/01/09 04:06:44;;;;;;;11.63;3.58;;;;;;;4.30;100.00;99419.56;5348958;27;20462;-81
2023/01/09 04:09:15;;;;;;;12.45;2.53;;;;;;;4.33;100.00;99419.31;5340236;27;20142;-81
2023/01/09 04:11:46;;;;;;;10.38;3.15;;;;;;;4.41;100.00;99421.25;5346477;27;20022;-81
2023/01/09 04:14:18;;;;;;;14.38;2.92;;;;;;;4.49;100.00;99413.47;5348431;27;20023;-81
2023/01/09 04:16:49;;;;;;;7.13;2.40;;;;;;;4.60;100.00;99414.31;5347430;27;20121;-81
2023/01/09 04:19:20;;;;;;;8.95;2.40;;;;;;;4.61;100.00;99413.34;5348245;27;20042;-81
2023/01/09 04:21:52;;;;;;;9.10;2.45;;;;;;;4.69;100.00;99410.84;5342824;27;20024;-81
2023/01/09 04:24:23;;;;;;;5.50;2.40;;;;;;;4.81;100.00;99414.19;5347839;27;20036;-81
2023/01/09 04:26:55;;;;;;;8.63;2.45;;;;;;;4.85;100.00;99413.75;5342135;27;20016;-81
2023/01/09 04:29:26;;;;;;;10.23;2.47;;;;;;;4.89;100.00;99412.50;5328589;27;21207;-82
2023/01/09 04:31:57;;;;;;;11.23;2.90;;;;;;;4.91;100.00;99407.91;5322285;27;20043;-81
2023/01/09 04:34:29;;;;;;;10.77;3.60;;;;;;;4.96;100.00;99411.91;5347536;27;20020;-82
2023/01/09 04:37:00;;;;;;;9.57;2.50;;;;;;;4.96;100.00;99412.78;5345970;27;20129;-81
2023/01/09 04:39:31;;;;;;;6.75;2.58;;;;;;;4.98;100.00;99418.75;5327495;27;20020;-81
2023/01/09 04:42:03;;;;;;;7.88;3.35;;;;;;;5.03;100.00;99418.31;5344290;27;20032;-82
2023/01/09 04:44:34;;;;;;;7.10;2.35;;;;;;;5.04;100.00;99410.25;5346127;27;20025;-81
2023/01/09 04:47:05;;;;;;;10.88;2.25;;;;;;;5.07;100.00;99409.13;5343166;27;20048;-82
2023/01/09 04:49:37;;;;;;;6.57;2.00;;;;;;;5.16;100.00;99405.63;5340231;27;20035;-82
2023/01/09 04:52:08;;;;;;;5.85;1.77;;;;;;;5.17;100.00;99423.19;5334397;27;20031;-82
2023/01/09 04:54:39;;;;;;;8.20;2.28;;;;;;;5.25;100.00;99420.63;5347117;27;20078;-82
2023/01/09 04:57:10;;;;;;;6.82;2.00;;;;;;;5.29;100.00;99408.81;5346897;27;20062;-82
2023/01/09 04:59:42;;;;;;;9.32;2.22;;;;;;;5.33;100.00;99411.16;5339715;27;20047;-82
2023/01/09 05:02:13;;;;;;;9.18;2.22;;;;;;;5.38;100.00;99401.84;5326026;27;20027;-82
2023/01/09 05:04:45;;;;;;;8.20;1.90;;;;;;;5.43;100.00;99409.31;5344468;27;20042;-83
2023/01/09 05:07:16;;;;;;;7.13;2.17;;;;;;;5.44;100.00;99403.06;5347254;27;20019;-82
2023/01/09 05:09:47;;;;;;;8.10;2.50;;;;;;;5.50;100.00;99413.03;5344877;27;28072;-82
2023/01/09 05:12:18;;;;;;;5.38;2.00;;;;;;;5.49;100.00;99409.56;5347120;27;20106;-82
2023/01/09 05:14:50;;;;;;;7.10;1.90;;;;;;;5.56;100.00;99401.03;5345508;27;20388;-82
2023/01/09 05:17:21;;;;;;;9.82;2.17;;;;;;;5.60;100.00;99408.56;5345613;27;20445;-82
2023/01/09 05:19:52;;;;;;;10.52;2.45;;;;;;;5.62;100.00;99406.59;5345284;27;33238;-82
2023/01/09 05:22:24;;;;;;;6.75;3.10;;;;;;;5.68;100.00;99406.03;5347241;27;20020;-82
2023/01/09 05:24:55;;;;;;;10.90;2.10;;;;;;;5.69;100.00;99404.19;5327052;27;20361;-82
2023/01/09 05:27:26;;;;;;;8.85;2.47;;;;;;;5.77;100.00;99399.03;5346659;27;20024;-82
2023/01/09 05:29:57;;;;;;;7.72;2.58;;;;;;;5.79;100.00;99391.75;5343896;27;20042;-82
2023/01/09 05:32:29;;;;;;;8.23;2.20;;;;;;;5.78;100.00;99392.72;5345193;27;20042;-82
2023/01/09 05:35:00;;;;;;;10.52;1.98;;;;;;;5.82;100.00;99406.50;5346297;27;20484;-82
2023/01/09 05:37:31;;;;;;;8.07;2.13;;;;;;;5.87;100.00;99398.94;5341691;27;20067;-82
2023/01/09 05:40:03;;;;;;;8.02;1.60;;;;;;;5.90;100.00;99398.66;5342020;27;23144;-82
2023/01/09 05:42:34;;;;;;;9.80;1.80;;;;;;;5.93;100.00;99389.63;5334576;27;20387;-82
2023/01/09 05:45:06;;;;;;;11.13;2.00;;;;;;;5.95;100.00;99383.19;5347598;27;20030;-81
2023/01/09 05:47:38;;;;;;;12.00;2.75;;;;;;;6.02;100.00;99380.81;5334636;27;20062;-81
2023/01/09 05:50:11;;;;;;;10.50;1.85;;;;;;;6.06;100.00;99387.47;5343575;27;20036;-81
2023/01/09 05:52:42;;;;;;;9.85;2.22;;;;;;;6.06;100.00;99375.03;5336975;27;20020;-81
2023/01/09 05:55:13;;;;;;;9.73;1.70;;;;;;;6.09;100.00;99375.75;5318800;28;20054;-82
2023/01/09 05:57:44;;;;;;;8.20;1.83;;;;;;;6.09;100.00;99375.75;5337649;27;20043;-82
2023/01/09 06:00:16;;;;;;;7.55;2.10;;;;;;;6.14;100.00;99390.22;5332966;27;20060;-82
2023/01/09 06:02:48;;;;;;;8.20;1.90;;;;;;;6.16;100.00;99380.28;5317192;27;20081;-82
2023/01/09 06:05:19;;;;;;;9.60;2.28;;;;;;;6.20;100.00;99386.13;5343297;27;20028;-83
2023/01/09 06:07:50;;;;;;;8.18;1.92;;;;;;;6.19;100.00;99382.66;5329004;27;20024;-83
2023/01/09 06:10:22;;;;;;;12.43;1.90;;;;;;;6.23;100.00;99375.22;5317181;27;20115;-82
2023/01/09 06:12:53;;;;;;;11.93;1.92;;;;;;;6.28;100.00;99382.75;5327878;27;20494;-83
2023/01/09 06:15:24;;;;;;;8.43;2.30;;;;;;;6.36;100.00;99382.81;5326585;27;20031;-83
2023/01/09 06:17:56;;;;;;;8.77;2.28;;;;;;;6.40;100.00;99369.13;5343133;27;20026;-83
2023/01/09 06:20:27;;;;;;;6.78;1.75;;;;;;;6.40;100.00;99373.59;5342679;27;20152;-82
2023/01/09 06:22:58;;;;;;;8.07;1.80;;;;;;;6.41;100.00;99376.06;5338374;27;20489;-83
2023/01/09 06:25:30;;;;;;;9.82;2.10;;;;;;;6.42;100.00;99379.56;5341517;27;20030;-81
2023/01/09 06:28:01;;;;;;;9.60;1.80;;;;;;;6.45;100.00;99387.19;5337255;27;20027;-82
2023/01/09 06:30:33;;;;;;;7.78;2.30;;;;;;;6.50;100.00;99390.22;5338274;27;20038;-82
2023/01/09 06:33:04;;;;;;;8.13;1.70;;;;;;;6.56;100.00;99389.63;5341236;27;20608;-82
2023/01/09 06:35:35;;;;;;;9.68;1.58;;;;;;;6.58;100.00;99386.81;5340285;27;20411;-82
2023/01/09 06:38:06;;;;;;;11.40;2.38;;;;;;;6.60;100.00;99388.31;5339555;27;20043;-82
2023/01/09 06:40:38;;;;;;;9.50;2.00;;;;;;;6.60;100.00;99384.84;5344963;27;20499;-82
2023/01/09 06:43:09;;;;;;;9.48;3.10;;;;;;;6.70;100.00;99398.84;5343575;27;20019;-82
2023/01/09 06:45:42;;;;;;;7.85;1.63;;;;;;;6.69;100.00;99391.88;5340937;27;20035;-82
2023/01/09 06:48:13;;;;;;;8.98;1.75;;;;;;;6.67;100.00;99380.59;5342638;27;20147;-82
2023/01/09 06:50:46;;;;;;;7.28;1.60;;;;;;;6.74;100.00;99396.72;5342831;27;20019;-82
2023/01/09 06:53:18;;;;;;;6.97;1.35;;;;;;;6.75;100.00;99393.06;5337574;27;20146;-82
2023/01/09 06:55:50;;;;;;;9.90;1.92;;;;;;;6.78;100.00;99390.97;5340968;27;20067;-82
2023/01/09 06:58:21;;;;;;;11.88;2.65;;;;;;;6.86;100.00;99399.97;5321583;27;20027;-82
2023/01/09 07:00:54;;;;;;;8.05;1.73;;;;;;;6.84;100.00;99394.81;5340301;27;20023;-82
2023/01/09 07:03:25;;;;;;;8.85;1.95;;;;;;;6.82;100.00;99404.75;5319625;27;20050;-83
2023/01/09 07:05:57;;;;;;;6.70;1.80;;;;;;;6.87;100.00;99396.31;5339619;27;20032;-82
2023/01/09 07:08:28;;;;;;;5.03;1.83;;;;;;;6.80;100.00;99418.16;5324339;27;20613;-82
2023/01/09 07:10:59;;;;;;;8.98;2.05;;;;;;;6.71;100.00;99410.28;5341113;27;20020;-82
2023/01/09 07:13:31;;;;;;;7.88;1.70;;;;;;;6.58;100.00;99414.13;5337698;27;20380;-82
2023/01/09 07:16:04;;;;;;;9.55;1.83;;;;;;;6.44;100.00;99423.44;5339716;27;20150;-82
2023/01/09 07:18:35;;;;;;;7.45;1.80;;;;;;;6.36;100.00;99414.59;5339028;27;20027;-81
2023/01/09 07:21:07;;;;;;;6.57;1.98;;;;;;;6.29;100.00;99424.94;5335979;27;20508;-81
2023/01/09 07:23:38;;;;;;;10.75;2.80;;;;;;;6.27;100.00;99424.25;5345213;27;20023;-81
2023/01/09 07:26:09;;;;;;;9.45;2.10;;;;;;;6.23;100.00;99434.31;5342207;27;20028;-82
2023/01/09 07:28:41;;;;;;;8.15;2.50;;;;;;;6.21;100.00;99449.53;5343142;27;20455;-81
2023/01/09 07:31:12;;;;;;;11.15;2.63;;;;;;;6.11;100.00;99448.75;5321130;27;20028;-81
2023/01/09 07:33:43;;;;;;;11.13;2.60;;;;;;;6.14;100.00;99468.81;5340467;27;20081;-81
2023/01/09 07:36:15;;;;;;;12.82;2.58;;;;;;;6.10;100.00;99454.19;5320206;27;20110;-81
2023/01/09 07:38:46;;;;;;;11.25;3.20;;;;;;;6.10;100.00;99470.91;5344690;27;20276;-82
2023/01/09 07:41:17;;;;;;;7.82;2.65;;;;;;;6.07;100.00;99465.91;5340559;27;20058;-82
2023/01/09 07:43:49;;;;;;;9.10;3.20;;;;;;;6.07;100.00;99473.84;5338337;27;20020;-82
2023/01/09 07:46:20;;;;;;;8.43;2.40;;;;;;;6.08;100.00;99478.16;5343766;27;20123;-82
2023/01/09 07:48:51;;;;;;;8.57;2.72;;;;;;;6.08;100.00;99475.50;5347836;27;20119;-82
2023/01/09 07:51:23;;;;;;;11.73;2.55;;;;;;;6.10;100.00;99480.66;5329651;27;20028;-82
2023/01/09 07:53:54;;;;;;;7.22;2.45;;;;;;;6.08;100.00;99487.91;5348041;27;20026;-82
2023/01/09 07:56:25;;;;;;;7.18;2.28;;;;;;;6.14;100.00;99485.50;5347769;27;20391;-82
2023/01/09 07:58:57;;;;;;;11.70;2.83;;;;;;;6.09;100.00;99479.00;5347231;27;20088;-82
2023/01/09 08:01:28;;;;;;;9.30;2.63;;;;;;;6.13;100.00;99485.66;5329444;27;20188;-82
2023/01/09 08:03:59;;;;;;;9.02;3.95;;;;;;;6.11;100.00;99496.41;5348360;27;20468;-82
2023/01/09 08:06:31;;;;;;;9.07;2.85;;;;;;;6.10;100.00;99486.81;5348455;27;20024;-82
2023/01/09 08:09:02;;;;;;;9.88;3.00;;;;;;;6.09;100.00;99495.72;5329190;27;20024;-82
2023/01/09 08:11:34;;;;;;;9.40;2.95;;;;;;;6.15;100.00;99513.63;5336284;27;20035;-82
2023/01/09 08:14:05;;;;;;;10.75;3.63;;;;;;;6.13;100.00;99506.84;5329080;27;20011;-82
2023/01/09 08:16:36;;;;;;;11.35;3.10;;;;;;;6.12;100.00;99515.75;5326434;28;20086;-82
2023/01/09 08:19:10;;;;;;;12.98;3.08;;;;;;;6.14;100.00;99513.81;5327984;28;20024;-82
2023/01/09 08:21:42;;;;;;;9.77;3.45;;;;;;;6.13;100.00;99520.91;5329331;27;20069;-81
2023/01/09 08:24:13;;;;;;;9.48;3.60;;;;;;;6.10;100.00;99520.34;5361583;27;20119;-81
2023/01/09 08:26:44;;;;;;;9.38;3.85;;;;;;;6.11;100.00;99535.28;5369164;27;20012;-81
2023/01/09 08:29:15;;;;;;;8.00;3.85;;;;;;;6.16;100.00;99536.50;5369650;27;20073;-81
2023/01/09 08:31:47;;;;;;;9.43;3.13;;;;;;;6.16;100.00;99538.31;5350657;27;20027;-82
2023/01/09 08:34:18;;;;;;;11.32;3.70;;;;;;;6.18;100.00;99549.59;5348374;27;20106;-82
2023/01/09 08:36:49;;;;;;;7.18;3.58;;;;;;;6.19;100.00;99562.69;5348069;27;20367;-82
2023/01/09 08:39:21;;;;;;;7.97;3.30;;;;;;;6.18;100.00;99553.06;5329728;27;20376;-82
2023/01/09 08:47:33;;;;;;;9.70;3.25;;;;;;;6.14;100.00;99572.06;5325826;28;20044;-82
2023/01/09 08:50:04;;;;;;;12.20;3.83;;;;;;;6.14;100.00;99572.88;5326651;28;20165;-82
2023/01/09 08:52:35;;;;;;;6.57;3.47;;;;;;;6.14;100.00;99580.84;5331816;27;20106;-82
2023/01/09 08:55:07;;;;;;;11.13;3.80;;;;;;;6.12;100.00;99588.09;5346072;27;34398;-82
2023/01/09 08:57:52;;;;;;;10.88;3.92;;;;;;;6.13;100.00;99600.31;5346841;27;20016;-82
2023/01/09 09:00:24;;;;;;;8.68;3.28;;;;;;;6.15;100.00;99608.97;5341133;27;20104;-82
2023/01/09 09:02:58;;;;;;;9.10;3.47;;;;;;;6.13;100.00;99602.97;5325342;28;20103;-82
2023/01/09 09:05:30;;;;;;;8.68;3.47;;;;;;;6.13;100.00;99608.28;5330369;27;20070;-82
2023/01/09 09:08:02;;;;;;;10.15;3.80;;;;;;;6.14;100.00;99628.50;5346781;27;20024;-82
2023/01/09 09:10:34;;;;;;;8.40;3.75;;;;;;;6.15;100.00;99624.84;5344829;27;20015;-82
2023/01/09 09:13:05;;;;;;;10.70;4.28;;;;;;;6.16;100.00;99623.06;5336349;27;20082;-81
2023/01/09 09:15:37;;;;;;;12.18;3.88;;;;;;;6.17;100.00;99632.66;5335469;27;20440;-82
2023/01/09 09:18:09;;;;;;;10.70;5.05;;;;;;;6.16;100.00;99646.88;5321758;27;20407;-82
2023/01/09 09:20:40;;;;;;;10.27;3.88;;;;;;;6.17;100.00;99649.38;5334268;27;20047;-82
2023/01/09 09:23:11;;;;;;;9.98;3.65;;;;;;;6.20;100.00;99649.09;5340093;27;20119;-82
2023/01/09 09:25:43;;;;;;;12.50;4.68;;;;;;;6.19;100.00;99660.66;5340252;27;20024;-82
2023/01/09 09:28:14;;;;;;;7.55;3.88;;;;;;;6.18;100.00;99660.81;5333857;27;20031;-81
2023/01/09 09:30:45;;;;;;;10.13;4.18;;;;;;;6.18;100.00;99666.94;5335711;27;20024;-81
2023/01/09 09:33:17;;;;;;;8.52;3.70;;;;;;;6.21;100.00;99663.19;5335438;27;20032;-81
2023/01/09 09:35:48;;;;;;;14.13;4.07;;;;;;;6.22;100.00;99678.94;5344733;27;20059;-81
2023/01/09 09:38:19;;;;;;;11.50;4.82;;;;;;;6.20;100.00;99680.03;5334204;27;20047;-83
2023/01/09 09:44:45;;;;;;;11.38;4.20;;;;;;;6.24;100.00;99687.56;5347957;27;20551;-81
2023/01/09 09:47:42;;;;;;;9.65;4.47;;;;;;;6.28;100.00;99703.16;5343975;27;20035;-82
2023/01/09 09:50:38;;;;;;;9.38;4.72;;;;;;;6.27;100.00;99704.13;5328422;27;20085;-82
2023/01/09 09:53:35;;;;;;;11.45;4.82;;;;;;;6.31;100.00;99714.31;5340371;27;20035;-81
2023/01/09 09:56:12;;;;;;;9.70;4.63;;;;;;;6.31;100.00;99721.41;5346185;27;20039;-82
2023/01/09 09:58:49;;;;;;;11.02;5.75;;;;;;;6.35;100.00;99728.94;5341553;27;20464;-82
2023/01/09 10:01:27;;;;;;;13.10;5.25;;;;;;;6.38;100.00;99735.75;5347536;27;20795;-82
2023/01/09 10:04:03;;;;;;;9.63;4.63;;;;;;;6.40;100.00;99739.09;5347433;27;21024;-82
2023/01/09 10:06:42;;;;;;;11.32;5.30;;;;;;;6.49;100.00;99738.25;5347729;27;20019;-82
2023/01/09 10:09:20;;;;;;;12.00;5.50;;;;;;;6.46;100.00;99749.13;5329669;27;20546;-81
2023/01/09 10:12:04;;;;;;;12.38;5.72;;;;;;;6.50;100.00;99750.50;5324717;28;20020;-81
2023/01/09 10:14:35;;;;;;;9.20;5.55;;;;;;;6.57;100.00;99764.00;5324677;28;20047;-82
2023/01/09 10:17:27;;;;;;;14.77;5.90;;;;;;;6.54;100.00;99772.25;5325464;28;20025;-82
2023/01/09 10:20:28;;;;;;;9.20;5.70;;;;;;;6.59;100.00;99764.69;5325351;27;20059;-82
2023/01/09 10:23:22;;;;;;;10.38;6.00;;;;;;;6.54;100.00;99774.88;5348300;27;20043;-82
2023/01/09 10:26:04;;;;;;;13.27;6.57;;;;;;;6.58;100.00;99776.28;5355112;27;20023;-82
2023/01/09 10:28:50;;;;;;;11.75;5.88;;;;;;;6.59;100.00;99780.59;5333193;27;20054;-82
2023/01/09 10:31:57;;;;;;;7.60;4.97;;;;;;;6.61;100.00;99786.63;5346532;27;20028;-82
2023/01/09 10:34:47;;;;;;;11.63;5.68;;;;;;;6.53;100.00;99792.59;5259189;28;20245;-82
2023/01/09 10:37:32;;;;;;;12.43;5.25;;;;;;;6.58;100.00;99786.88;5319308;28;20033;-82
2023/01/09 10:40:22;;;;;;;9.77;4.88;;;;;;;6.63;100.00;99795.25;5324703;28;20028;-82
2023/01/09 10:43:19;;;;;;;9.95;5.35;;;;;;;6.57;100.00;99798.44;5324383;28;20075;-82
2023/01/09 10:45:54;;;;;;;12.15;5.40;;;;;;;6.56;100.00;99781.72;5325481;28;20030;-82
2023/01/09 10:48:35;;;;;;;12.95;5.35;;;;;;;6.68;100.00;99785.06;5321205;28;20031;-81
2023/01/09 10:51:18;;;;;;;9.07;4.45;;;;;;;6.68;100.00;99786.84;5348410;27;20061;-81
2023/01/09 10:53:53;;;;;;;9.85;4.97;;;;;;;6.73;100.00;99796.06;5371181;27;20023;-81
2023/01/09 10:56:35;;;;;;;10.05;4.93;;;;;;;6.88;100.00;99801.72;5370668;27;20121;-81
2023/01/09 10:59:08;;;;;;;9.15;5.22;;;;;;;7.24;100.00;99801.91;5348408;27;20018;-81
2023/01/09 11:01:41;;;;;;;10.63;4.75;;;;;;;7.60;100.00;99801.16;5367583;27;20035;-82
2023/01/09 11:04:23;;;;;;;9.43;5.00;;;;;;;8.15;100.00;99798.38;5366459;27;20010;-80
2023/01/09 11:06:58;;;;;;;7.03;4.03;;;;;;;8.25;100.00;99807.13;5366369;27;20011;-82
2023/01/09 11:10:01;;;;;;;9.35;4.28;;;;;;;8.24;100.00;99807.25;5369366;27;20079;-81
2023/01/09 11:12:34;;;;;;;10.13;4.60;;;;;;;8.98;100.00;99813.19;5353549;27;20084;-81
2023/01/09 11:15:27;;;;;;;6.75;3.22;;;;;;;10.81;100.00;99804.44;5373970;27;20024;-82
2023/01/09 11:18:23;;;;;;;5.95;2.38;;;;;;;12.00;100.00;99805.31;5372090;27;20031;-83
2023/01/09 11:20:55;;;;;;;4.57;2.17;;;;;;;12.22;100.00;99809.03;5370683;27;20039;-82
2023/01/09 11:23:29;;;;;;;5.80;2.47;;;;;;;12.37;100.00;99805.56;5372220;27;20103;-81
2023/01/09 11:26:02;;;;;;;8.52;3.25;;;;;;;12.04;100.00;99806.66;5370784;27;20024;-81
2023/01/09 11:28:33;;;;;;;6.00;1.90;;;;;;;13.25;100.00;99809.38;5350068;27;20070;-82
2023/01/09 11:31:05;;;;;;;9.43;3.13;;;;;;;14.35;100.00;99813.78;5349630;27;20051;-82
2023/01/09 11:33:41;;;;;;;5.80;2.30;;;;;;;13.33;100.00;99819.22;5332417;27;20077;-81
2023/01/09 11:36:14;;;;;;;;;;;;;;;12.29;100.00;99822.53;5355996;27;20076;-82
2023/01/09 11:38:52;;;;;;;4.22;2.50;;;;;;;10.95;100.00;99827.75;5354273;27;19915;-82
2023/01/09 11:41:34;;;;;;;7.15;3.20;;;;;;;10.25;100.00;99835.41;5350586;27;20039;-82
2023/01/09 11:44:13;;;;;;;10.52;3.00;;;;;;;9.41;100.00;99830.88;5352239;27;20023;-80
2023/01/09 11:46:45;;;;;;;5.93;3.22;;;;;;;9.15;100.00;99836.22;5349223;27;20016;-82
2023/01/09 11:49:16;;;;;;;8.80;3.38;;;;;;;9.01;100.00;99844.75;5355226;27;20027;-82
2023/01/09 11:52:21;;;;;;;7.63;3.72;;;;;;;9.09;100.00;99842.97;5351837;27;20026;-82
2023/01/09 11:55:03;;;;;;;7.05;3.70;;;;;;;8.75;100.00;99850.91;5345436;27;20031;-81
2023/01/09 11:57:34;;;;;;;9.02;4.55;;;;;;;8.37;100.00;99841.44;5352394;27;20100;-83
2023/01/09 12:00:38;;;;;;;8.65;3.55;;;;;;;8.17;100.00;99854.88;5351438;27;20020;-80
2023/01/09 12:03:34;;;;;;;8.60;4.50;;;;;;;8.02;100.00;99841.25;5347005;27;20040;-80
2023/01/09 12:06:20;;;;;;;8.90;4.45;;;;;;;8.74;100.00;99843.91;5319893;28;20036;-81
2023/01/09 12:09:06;;;;;;;7.18;3.80;;;;;;;10.77;100.00;99848.47;5326090;28;20032;-82
2023/01/09 12:12:21;;;;;;;5.18;2.95;;;;;;;12.49;100.00;99844.25;5326961;27;20048;-82
2023/01/09 12:15:13;;;;;;;7.05;2.80;;;;;;;12.86;100.00;99835.38;5280384;28;20032;-82
2023/01/09 12:18:10;;;;;;;7.30;2.83;;;;;;;13.38;100.00;99846.28;5325215;28;20062;-82
2023/01/09 12:21:05;;;;;;;7.65;2.65;;;;;;;13.13;100.00;99851.88;5308631;27;20071;-82
2023/01/09 12:23:51;;;;;;;7.32;2.03;;;;;;;12.21;100.00;99851.97;5347245;27;20015;-82